createdAt,value
2023-05-11T00:00:46.330Z,79.01
2023-05-11T00:04:34.217Z,80.33
2023-05-11T00:07:48.424Z,80.79
2023-05-11T00:11:36.689Z,82.35
2023-05-11T00:14:40.320Z,83.17
2023-05-11T00:18:16.752Z,84.29
2023-05-11T00:21:22.174Z,86.23
2023-05-11T00:24:35.257Z,94.56
2023-05-11T00:28:16.396Z,99.46
2023-05-11T00:31:46.599Z,100.00
2023-05-11T00:34:57.514Z,100.00
2023-05-11T00:38:07.390Z,100.00
2023-05-11T00:41:54.980Z,100.00
2023-05-11T00:45:24.958Z,100.00
2023-05-11T00:49:05.471Z,100.00
2023-05-11T00:51:57.353Z,100.00
2023-05-11T00:54:53.844Z,100.00
2023-05-11T00:57:39.864Z,100.00
2023-05-11T01:00:47.166Z,100.00
2023-05-11T01:04:32.163Z,100.00
2023-05-11T01:07:59.639Z,100.00
2023-05-11T01:11:55.576Z,100.00
2023-05-11T01:15:11.210Z,100.00
2023-05-11T01:18:37.915Z,100.00
2023-05-11T01:22:25.486Z,100.00
2023-05-11T01:25:52.416Z,100.00
2023-05-11T01:29:36.363Z,100.00
2023-05-11T01:33:14.922Z,100.00
2023-05-11T01:36:41.957Z,100.00
2023-05-11T01:39:57.214Z,100.00
2023-05-11T01:42:45.230Z,100.00
2023-05-11T01:46:15.254Z,100.00
2023-05-11T01:49:39.932Z,100.00
2023-05-11T01:53:00.682Z,100.00
2023-05-11T01:56:11.517Z,100.00
2023-05-11T01:59:13.724Z,100.00
2023-05-11T02:01:57.678Z,100.00
2023-05-11T02:05:21.538Z,100.00
2023-05-11T02:08:29.041Z,100.00
2023-05-11T02:11:54.993Z,100.00
2023-05-11T02:15:06.138Z,100.00
2023-05-11T02:17:53.008Z,100.00
2023-05-11T02:21:12.941Z,100.00
2023-05-11T02:25:00.583Z,100.00
2023-05-11T02:28:21.267Z,100.00
2023-05-11T02:31:14.668Z,100.00
2023-05-11T02:34:37.123Z,100.00
2023-05-11T02:37:48.434Z,100.00
2023-05-11T02:41:19.635Z,100.00
2023-05-11T02:44:13.550Z,100.00
2023-05-11T02:47:52.760Z,100.00
2023-05-11T02:50:35.423Z,100.00
2023-05-11T02:53:12.819Z,100.00
2023-05-11T02:56:41.874Z,100.00
2023-05-11T03:00:22.324Z,100.00
2023-05-11T03:03:20.949Z,100.00
2023-05-11T03:06:48.716Z,100.00
2023-05-11T03:10:26.345Z,100.00
2023-05-11T03:13:56.892Z,100.00
2023-05-11T03:17:05.319Z,100.00
2023-05-11T03:20:35.432Z,100.00
2023-05-11T03:23:56.229Z,100.00
2023-05-11T03:27:43.334Z,100.00
2023-05-11T03:31:17.947Z,95.30
2023-05-11T03:34:49.079Z,89.57
2023-05-11T03:38:36.678Z,86.04
2023-05-11T03:42:24.348Z,83.42
2023-05-11T03:45:55.715Z,81.26
2023-05-11T03:49:43.292Z,78.80
2023-05-11T03:52:55.828Z,80.67
2023-05-11T03:55:50.109Z,81.92
2023-05-11T03:58:55.095Z,83.59
2023-05-11T04:01:46.400Z,86.02
2023-05-11T04:05:30.517Z,85.22
2023-05-11T04:08:43.648Z,86.75
2023-05-11T04:12:04.200Z,88.03
2023-05-11T04:15:32.990Z,89.02
2023-05-11T04:19:01.239Z,91.91
2023-05-11T04:22:20.908Z,93.93
2023-05-11T04:26:04.051Z,94.99
2023-05-11T04:29:36.221Z,94.68
2023-05-11T04:33:16.483Z,94.50
2023-05-11T04:36:55.358Z,94.34
2023-05-11T04:40:18.067Z,92.79
2023-05-11T04:43:28.889Z,90.02
2023-05-11T04:46:31.976Z,89.09
2023-05-11T04:50:13.154Z,85.38
2023-05-11T04:53:17.851Z,79.60
2023-05-11T04:56:38.433Z,79.68
2023-05-11T05:00:17.710Z,78.10
2023-05-11T05:04:05.976Z,75.70
2023-05-11T05:07:12.175Z,75.43
2023-05-11T05:10:21.512Z,74.69
2023-05-11T05:13:53.985Z,75.27
2023-05-11T05:17:06.877Z,75.10
2023-05-11T05:20:43.374Z,76.90
2023-05-11T05:24:10.255Z,77.60
2023-05-11T05:27:21.172Z,77.77
2023-05-11T05:30:36.413Z,76.75
2023-05-11T05:33:29.677Z,74.49
2023-05-11T05:36:49.803Z,73.47
2023-05-11T05:39:57.301Z,71.33
2023-05-11T05:42:48.109Z,71.74
2023-05-11T05:46:20.767Z,72.41
2023-05-11T05:49:17.032Z,71.98
2023-05-11T05:52:35.027Z,70.82
2023-05-11T05:55:58.246Z,71.85
2023-05-11T05:59:45.704Z,69.64
2023-05-11T06:03:16.106Z,70.46
2023-05-11T06:06:48.038Z,68.44
2023-05-11T06:10:03.542Z,69.43
2023-05-11T06:13:23.587Z,69.82
2023-05-11T06:17:09.989Z,70.25
2023-05-11T06:20:27.827Z,69.86
2023-05-11T06:24:15.643Z,69.83
2023-05-11T06:27:30.582Z,69.09
2023-05-11T06:30:43.017Z,71.14
2023-05-11T06:34:19.612Z,69.97
2023-05-11T06:37:47.301Z,71.29
2023-05-11T06:41:13.603Z,70.70
2023-05-11T06:44:29.091Z,70.47
2023-05-11T06:48:02.008Z,70.79
2023-05-11T06:51:21.061Z,70.93
2023-05-11T06:54:33.419Z,69.89
2023-05-11T06:58:10.489Z,71.10
2023-05-11T07:01:16.416Z,71.20
2023-05-11T07:04:24.684Z,71.56
2023-05-11T07:08:12.518Z,71.90
2023-05-11T07:11:51.321Z,71.21
2023-05-11T07:15:29.374Z,69.77
2023-05-11T07:19:15.285Z,61.49
2023-05-11T07:23:02.602Z,56.73
2023-05-11T07:26:48.809Z,55.95
2023-05-11T07:30:37.011Z,53.75
2023-05-11T07:34:16.648Z,56.78
2023-05-11T07:37:35.528Z,58.03
2023-05-11T07:41:11.590Z,56.88
2023-05-11T07:45:00.251Z,56.21
2023-05-11T07:48:47.909Z,60.80
2023-05-11T07:52:25.638Z,56.11
2023-05-11T07:55:49.399Z,54.07
2023-05-11T07:59:29.624Z,53.69
2023-05-11T08:03:20.669Z,53.47
2023-05-11T08:06:27.815Z,53.37
2023-05-11T08:10:15.347Z,52.56
2023-05-11T08:14:01.765Z,51.38
2023-05-11T08:17:29.214Z,49.94
2023-05-11T08:21:15.812Z,49.44
2023-05-11T08:24:57.237Z,49.71
2023-05-11T08:28:28.844Z,52.73
2023-05-11T08:32:16.777Z,50.52
2023-05-11T08:35:46.154Z,48.94
2023-05-11T08:43:26.390Z,48.07
2023-05-11T08:47:20.950Z,50.30
2023-05-11T08:50:57.003Z,49.66
2023-05-11T08:54:38.868Z,50.31
2023-05-11T08:58:26.736Z,48.99
2023-05-11T09:02:15.768Z,47.74
2023-05-11T09:06:03.858Z,46.76
2023-05-11T09:09:51.555Z,44.71
2023-05-11T09:13:37.784Z,44.39
2023-05-11T09:17:25.224Z,45.07
2023-05-11T09:21:27.053Z,43.23
2023-05-11T09:25:14.613Z,41.81
2023-05-11T09:29:03.032Z,42.76
2023-05-11T09:32:52.004Z,42.73
2023-05-11T09:36:40.270Z,43.65
2023-05-11T09:40:34.272Z,43.76
2023-05-11T09:44:22.590Z,44.13
2023-05-11T09:48:13.214Z,42.98
2023-05-11T09:52:03.809Z,41.08
2023-05-11T09:55:40.021Z,40.38
2023-05-11T09:59:27.680Z,41.31
2023-05-11T10:03:18.761Z,40.51
2023-05-11T10:07:00.131Z,39.34
2023-05-11T10:10:48.639Z,38.34
2023-05-11T10:14:36.864Z,38.88
2023-05-11T10:18:25.147Z,38.45
2023-05-11T10:22:13.373Z,38.14
2023-05-11T10:26:01.610Z,38.23
2023-05-11T10:28:53.167Z,38.60
2023-05-11T10:32:17.004Z,38.49
2023-05-11T10:35:37.112Z,38.27
2023-05-11T10:39:25.099Z,37.04
2023-05-11T10:43:39.824Z,37.02
2023-05-11T10:47:25.814Z,37.75
2023-05-11T10:51:10.252Z,38.53
2023-05-11T10:55:06.966Z,36.05
2023-05-11T10:58:54.622Z,35.03
2023-05-11T11:02:42.803Z,36.42
2023-05-11T11:06:33.752Z,35.42
2023-05-11T11:10:04.000Z,34.25
2023-05-11T11:14:05.088Z,35.20
2023-05-11T11:17:54.435Z,35.08
2023-05-11T11:21:38.976Z,35.44
2023-05-11T11:25:38.711Z,35.59
2023-05-11T11:29:27.126Z,35.33
2023-05-11T11:33:18.746Z,35.48
2023-05-11T11:37:05.022Z,34.14
2023-05-11T11:40:52.310Z,32.19
2023-05-11T11:44:40.648Z,33.17
2023-05-11T11:48:18.385Z,32.97
2023-05-11T11:52:08.862Z,33.32
2023-05-11T11:55:56.606Z,34.30
2023-05-11T11:59:42.188Z,35.36
2023-05-11T12:03:23.691Z,35.30
2023-05-11T12:07:20.930Z,35.56
2023-05-11T12:11:02.823Z,35.10
2023-05-11T12:14:40.736Z,34.00
2023-05-11T12:18:19.331Z,33.09
2023-05-11T12:22:12.303Z,33.42
2023-05-11T12:26:00.620Z,33.18
2023-05-11T12:29:47.270Z,33.87
2023-05-11T12:33:35.628Z,33.01
2023-05-11T12:37:18.087Z,33.00
2023-05-11T12:41:07.134Z,32.89
2023-05-11T12:44:40.643Z,34.43
2023-05-11T12:48:05.504Z,33.69
2023-05-11T12:51:46.370Z,33.99
2023-05-11T12:55:34.262Z,33.31
2023-05-11T12:59:00.203Z,33.66
2023-05-11T13:02:48.149Z,34.83
2023-05-11T13:06:25.153Z,34.72
2023-05-11T13:09:38.420Z,33.89
2023-05-11T13:13:09.451Z,32.94
2023-05-11T13:17:02.915Z,32.73
2023-05-11T13:20:58.613Z,34.40
2023-05-11T13:24:26.790Z,34.40
2023-05-11T13:28:05.455Z,32.49
2023-05-11T13:31:32.284Z,33.62
2023-05-11T13:35:20.162Z,33.91
2023-05-11T13:39:07.893Z,33.60
2023-05-11T13:42:48.351Z,33.29
2023-05-11T13:46:35.801Z,34.03
2023-05-11T13:50:06.159Z,34.03
2023-05-11T13:53:46.604Z,34.56
2023-05-11T13:57:55.408Z,34.23
2023-05-11T14:01:36.992Z,33.93
2023-05-11T14:05:25.280Z,33.21
2023-05-11T14:09:13.691Z,33.74
2023-05-11T14:12:37.036Z,35.45
2023-05-11T14:16:16.450Z,36.55
2023-05-11T14:20:04.884Z,36.26
2023-05-11T14:23:53.135Z,36.50
2023-05-11T14:27:34.078Z,37.94
2023-05-11T14:31:11.812Z,37.50
2023-05-11T14:34:59.918Z,38.08
2023-05-11T14:38:39.008Z,37.45
2023-05-11T14:42:19.884Z,38.09
2023-05-11T14:45:30.397Z,37.81
2023-05-11T14:49:14.819Z,37.45
2023-05-11T14:53:02.865Z,36.98
2023-05-11T14:56:30.065Z,37.15
2023-05-11T14:59:20.412Z,37.08
2023-05-11T15:02:39.627Z,36.25
2023-05-11T15:06:21.523Z,36.40
2023-05-11T15:10:01.572Z,36.76
2023-05-11T15:13:32.588Z,35.83
2023-05-11T15:16:56.841Z,35.94
2023-05-11T15:21:05.559Z,36.79
2023-05-11T15:24:35.805Z,35.20
2023-05-11T15:28:15.918Z,35.43
2023-05-11T15:31:49.448Z,35.77
2023-05-11T15:34:58.629Z,36.19
2023-05-11T15:37:28.895Z,36.19
2023-05-11T15:40:52.829Z,35.42
2023-05-11T15:43:58.379Z,35.73
2023-05-11T15:46:45.161Z,35.64
2023-05-11T15:50:15.511Z,35.09
2023-05-11T15:53:47.939Z,35.00
2023-05-11T15:57:02.390Z,35.20
2023-05-11T16:00:50.006Z,34.76
2023-05-11T16:03:56.655Z,35.59
2023-05-11T16:07:28.675Z,35.18
2023-05-11T16:10:45.619Z,35.20
2023-05-11T16:14:13.730Z,35.72
2023-05-11T16:17:46.030Z,35.57
2023-05-11T16:20:41.293Z,35.88
2023-05-11T16:24:11.390Z,35.71
2023-05-11T16:26:51.957Z,36.21
2023-05-11T16:30:39.885Z,36.01
2023-05-11T16:34:21.225Z,35.48
2023-05-11T16:37:49.139Z,35.66
2023-05-11T16:41:24.442Z,35.47
2023-05-11T16:44:27.379Z,36.01
2023-05-11T16:47:57.924Z,35.55
2023-05-11T16:51:45.923Z,36.43
2023-05-11T16:55:08.374Z,36.01
2023-05-11T16:58:47.120Z,36.35
2023-05-11T17:02:28.638Z,36.23
2023-05-11T17:06:17.196Z,36.86
2023-05-11T17:09:58.395Z,37.15
2023-05-11T17:13:29.816Z,37.76
2023-05-11T17:16:26.940Z,38.25
2023-05-11T17:20:06.129Z,38.46
2023-05-11T17:23:44.537Z,38.85
2023-05-11T17:26:53.265Z,39.13
2023-05-11T17:30:29.835Z,39.39
2023-05-11T17:34:13.808Z,39.52
2023-05-11T17:38:02.365Z,39.85
2023-05-11T17:41:04.106Z,40.34
2023-05-11T17:44:31.978Z,40.56
2023-05-11T17:48:01.517Z,40.57
2023-05-11T17:51:49.948Z,41.20
2023-05-11T17:55:05.088Z,41.51
2023-05-11T17:58:28.510Z,41.79
2023-05-11T18:02:17.297Z,42.25
2023-05-11T18:05:58.797Z,42.84
2023-05-11T18:09:21.625Z,43.28
2023-05-11T18:13:09.676Z,44.00
2023-05-11T18:16:43.102Z,44.46
2023-05-11T18:20:24.750Z,44.95
2023-05-11T18:23:04.504Z,45.24
2023-05-11T18:26:12.988Z,45.71
2023-05-11T18:29:28.053Z,46.47
2023-05-11T18:33:16.456Z,46.74
2023-05-11T18:36:34.617Z,48.04
2023-05-11T18:40:13.412Z,48.50
2023-05-11T18:43:15.037Z,49.20
2023-05-11T18:46:59.982Z,49.99
2023-05-11T18:50:30.039Z,50.74
2023-05-11T18:54:12.871Z,52.12
2023-05-11T18:57:46.960Z,53.53
2023-05-11T19:00:56.907Z,55.05
2023-05-11T19:04:35.101Z,54.93
2023-05-11T19:08:02.852Z,54.72
2023-05-11T19:11:19.232Z,55.06
2023-05-11T19:14:47.527Z,55.39
2023-05-11T19:18:12.422Z,55.23
2023-05-11T19:22:02.468Z,55.88
2023-05-11T19:25:25.593Z,55.74
2023-05-11T19:29:16.674Z,55.84
2023-05-11T19:32:14.455Z,55.95
2023-05-11T19:35:10.607Z,55.98
2023-05-11T19:38:40.894Z,56.06
2023-05-11T19:41:46.121Z,56.16
2023-05-11T19:45:10.985Z,56.05
2023-05-11T19:48:19.969Z,56.08
2023-05-11T19:51:58.727Z,56.12
2023-05-11T19:55:21.671Z,56.34
2023-05-11T19:59:06.018Z,57.02
2023-05-11T20:02:53.463Z,57.09
2023-05-11T20:06:34.632Z,57.53
2023-05-11T20:09:52.105Z,57.76
2023-05-11T20:13:02.160Z,57.96
2023-05-11T20:16:12.832Z,58.52
2023-05-11T20:19:43.891Z,58.78
2023-05-11T20:24:07.384Z,59.32
2023-05-11T20:27:19.399Z,60.49
2023-05-11T20:30:59.268Z,61.21
2023-05-11T20:34:47.835Z,61.21
2023-05-11T20:38:29.436Z,61.36
2023-05-11T20:41:50.035Z,61.74
2023-05-11T20:44:45.568Z,62.43
2023-05-11T20:47:39.792Z,62.42
2023-05-11T20:51:04.943Z,62.67
2023-05-11T20:54:44.488Z,63.21
2023-05-11T20:58:04.547Z,64.07
2023-05-11T21:01:37.910Z,63.92
2023-05-11T21:05:01.194Z,64.09
2023-05-11T21:08:27.435Z,64.53
2023-05-11T21:11:51.030Z,64.95
2023-05-11T21:14:58.860Z,65.30
2023-05-11T21:18:01.791Z,65.42
2023-05-11T21:21:50.496Z,66.09
2023-05-11T21:25:16.619Z,67.34
2023-05-11T21:29:05.116Z,67.78
2023-05-11T21:32:19.346Z,69.07
2023-05-11T21:36:08.134Z,69.93
2023-05-11T21:39:37.849Z,70.19
2023-05-11T21:42:47.056Z,70.65
2023-05-11T21:46:08.941Z,71.29
2023-05-11T21:49:20.556Z,72.15
2023-05-11T21:52:51.126Z,72.49
2023-05-11T21:55:57.246Z,73.70
2023-05-11T21:59:39.875Z,75.10
2023-05-11T22:03:28.195Z,76.87
2023-05-11T22:06:32.896Z,78.16
2023-05-11T22:09:23.680Z,78.90
2023-05-11T22:13:11.469Z,80.06
2023-05-11T22:16:22.820Z,81.63
2023-05-11T22:19:21.157Z,82.88
2023-05-11T22:22:32.103Z,84.26
2023-05-11T22:26:01.909Z,84.88
2023-05-11T22:29:06.057Z,86.33
2023-05-11T22:32:35.443Z,87.44
2023-05-11T22:35:48.538Z,89.23
2023-05-11T22:38:36.132Z,89.75
2023-05-11T22:41:47.617Z,90.44
2023-05-11T22:45:15.251Z,90.22
2023-05-11T22:48:13.729Z,91.76
2023-05-11T22:51:08.479Z,91.83
2023-05-11T22:54:09.172Z,92.80
2023-05-11T22:57:39.682Z,94.28
2023-05-11T23:00:32.422Z,95.60
2023-05-11T23:03:50.406Z,95.81
2023-05-11T23:06:53.141Z,97.12
2023-05-11T23:09:52.074Z,98.39
2023-05-11T23:13:23.395Z,99.11
2023-05-11T23:16:24.362Z,100.00
2023-05-11T23:19:49.735Z,100.00
2023-05-11T23:23:26.621Z,100.00
2023-05-11T23:26:40.990Z,100.00
2023-05-11T23:30:11.244Z,100.00
2023-05-11T23:33:39.148Z,100.00
2023-05-11T23:36:50.333Z,100.00
2023-05-11T23:39:22.813Z,100.00
2023-05-11T23:42:23.925Z,100.00
2023-05-11T23:46:01.468Z,100.00
2023-05-11T23:49:37.755Z,100.00
2023-05-11T23:52:49.591Z,100.00
2023-05-11T23:55:35.426Z,100.00
2023-05-11T23:59:12.768Z,100.00
